createdAt,value
2018-09-10T00:00:14.962Z,2.20
2018-09-10T00:02:42.613Z,2.40
2018-09-10T00:05:10.810Z,2.00
2018-09-10T00:07:38.500Z,2.20
2018-09-10T00:10:06.244Z,2.40
2018-09-10T00:12:35.849Z,2.10
2018-09-10T00:15:03.644Z,2.20
2018-09-10T00:17:31.384Z,2.17
2018-09-10T00:19:59.209Z,2.60
2018-09-10T00:22:26.840Z,2.20
2018-09-10T00:24:54.769Z,2.10
2018-09-10T00:27:24.523Z,2.43
2018-09-10T00:29:52.143Z,2.03
2018-09-10T00:32:19.831Z,2.10
2018-09-10T00:34:47.445Z,2.50
2018-09-10T00:37:15.060Z,2.20
2018-09-10T00:39:42.664Z,1.90
2018-09-10T00:42:10.391Z,2.33
2018-09-10T00:44:38.029Z,2.23
2018-09-10T00:47:05.675Z,2.17
2018-09-10T00:49:33.204Z,2.20
2018-09-10T00:52:00.913Z,2.00
2018-09-10T00:54:28.691Z,2.33
2018-09-10T00:56:56.391Z,2.50
2018-09-10T00:59:24.025Z,1.93
2018-09-10T01:01:51.581Z,2.03
2018-09-10T01:04:19.155Z,1.90
2018-09-10T01:06:46.767Z,2.00
2018-09-10T01:09:14.376Z,2.70
2018-09-10T01:11:42.579Z,1.97
2018-09-10T01:14:10.220Z,2.20
2018-09-10T01:16:37.870Z,2.20
2018-09-10T01:19:05.575Z,1.90
2018-09-10T01:21:33.225Z,2.00
2018-09-10T01:24:00.847Z,2.10
2018-09-10T01:26:28.588Z,2.30
2018-09-10T01:28:56.291Z,2.30
2018-09-10T01:31:24.050Z,2.47
2018-09-10T01:33:57.468Z,2.60
2018-09-10T01:36:25.144Z,2.30
2018-09-10T01:38:52.849Z,2.53
2018-09-10T01:41:20.560Z,2.40
2018-09-10T01:43:50.263Z,2.60
2018-09-10T01:46:17.920Z,2.40
2018-09-10T01:48:45.600Z,2.50
2018-09-10T01:51:13.319Z,2.67
2018-09-10T01:53:40.994Z,2.43
2018-09-10T01:56:08.779Z,2.07
2018-09-10T01:58:36.418Z,2.50
2018-09-10T02:01:04.107Z,2.03
2018-09-10T02:03:31.704Z,2.53
2018-09-10T02:05:59.416Z,2.30
2018-09-10T02:08:27.046Z,2.13
2018-09-10T02:10:54.792Z,2.50
2018-09-10T02:13:22.484Z,2.63
2018-09-10T02:15:53.599Z,2.70
2018-09-10T02:18:22.237Z,2.80
2018-09-10T02:20:49.963Z,2.60
2018-09-10T02:23:18.146Z,2.90
2018-09-10T02:25:45.814Z,2.73
2018-09-10T02:28:13.414Z,2.57
2018-09-10T02:30:41.048Z,2.80
2018-09-10T02:33:08.863Z,2.80
2018-09-10T02:35:36.819Z,3.00
2018-09-10T02:38:05.049Z,2.53
2018-09-10T02:40:32.708Z,2.93
2018-09-10T02:43:00.535Z,3.00
2018-09-10T02:45:28.117Z,3.00
2018-09-10T02:47:55.744Z,2.53
2018-09-10T02:50:23.478Z,2.80
2018-09-10T02:52:51.164Z,2.50
2018-09-10T02:55:18.890Z,2.90
2018-09-10T02:57:48.329Z,2.53
2018-09-10T03:00:16.081Z,2.70
2018-09-10T03:02:43.724Z,2.57
2018-09-10T03:05:11.448Z,2.90
2018-09-10T03:07:39.365Z,2.70
2018-09-10T03:10:07.007Z,2.80
2018-09-10T03:12:35.259Z,2.53
2018-09-10T03:15:02.990Z,3.60
2018-09-10T03:17:30.567Z,3.00
2018-09-10T03:19:58.094Z,2.97
2018-09-10T03:22:25.677Z,3.00
2018-09-10T03:24:53.353Z,3.47
2018-09-10T03:27:21.185Z,3.37
2018-09-10T03:29:49.257Z,2.80
2018-09-10T03:32:16.917Z,3.23
2018-09-10T03:34:44.572Z,3.10
2018-09-10T03:37:12.297Z,2.63
2018-09-10T03:39:40.236Z,3.30
2018-09-10T03:42:07.924Z,2.73
2018-09-10T03:44:35.621Z,3.03
2018-09-10T03:47:03.380Z,2.70
2018-09-10T03:49:31.038Z,3.10
2018-09-10T03:51:58.650Z,2.90
2018-09-10T03:54:26.311Z,2.90
2018-09-10T03:56:54.088Z,2.90
2018-09-10T03:59:21.739Z,3.00
2018-09-10T04:01:49.586Z,2.90
2018-09-10T04:04:17.323Z,2.90
2018-09-10T04:06:44.946Z,3.20
2018-09-10T04:09:12.625Z,2.70
2018-09-10T04:11:40.335Z,2.90
2018-09-10T04:14:08.005Z,3.37
2018-09-10T04:16:35.723Z,3.37
2018-09-10T04:19:03.548Z,3.07
2018-09-10T04:21:31.240Z,3.43
2018-09-10T04:23:58.962Z,3.60
2018-09-10T04:26:29.424Z,4.10
2018-09-10T04:28:57.149Z,3.60
2018-09-10T04:31:24.830Z,3.53
2018-09-10T04:33:52.499Z,3.60
2018-09-10T04:36:20.130Z,3.53
2018-09-10T04:38:47.812Z,3.37
2018-09-10T04:41:15.522Z,3.43
2018-09-10T04:43:43.173Z,3.80
2018-09-10T04:46:10.826Z,4.00
2018-09-10T04:48:38.532Z,4.10
2018-09-10T04:51:06.274Z,4.07
2018-09-10T04:53:33.910Z,3.60
2018-09-10T04:56:01.588Z,3.70
2018-09-10T04:58:29.269Z,3.90
2018-09-10T05:00:57.096Z,3.37
2018-09-10T05:03:24.855Z,4.73
2018-09-10T05:05:52.517Z,4.20
2018-09-10T05:08:22.055Z,3.70
2018-09-10T05:10:49.643Z,3.83
2018-09-10T05:13:17.263Z,6.50
2018-09-10T05:15:44.952Z,5.80
2018-09-10T05:18:12.747Z,7.20
2018-09-10T05:20:40.526Z,8.30
2018-09-10T05:23:08.277Z,9.90
2018-09-10T05:25:35.997Z,9.90
2018-09-10T05:28:03.659Z,9.50
2018-09-10T05:30:31.397Z,10.27
2018-09-10T05:32:59.096Z,9.43
2018-09-10T05:35:26.785Z,8.83
2018-09-10T05:37:54.463Z,10.53
2018-09-10T05:40:22.097Z,10.53
2018-09-10T05:42:49.950Z,8.97
2018-09-10T05:45:17.723Z,8.83
2018-09-10T05:47:45.358Z,10.20
2018-09-10T05:50:12.992Z,9.87
2018-09-10T05:52:40.624Z,9.50
2018-09-10T05:55:08.299Z,10.30
2018-09-10T05:57:36.466Z,11.17
2018-09-10T06:00:05.207Z,10.83
2018-09-10T06:02:32.852Z,12.10
2018-09-10T06:05:00.581Z,11.33
2018-09-10T06:07:28.347Z,11.17
2018-09-10T06:09:56.189Z,11.47
2018-09-10T06:12:24.203Z,11.73
2018-09-10T06:14:51.909Z,12.57
2018-09-10T06:17:19.710Z,11.17
2018-09-10T06:19:47.663Z,11.37
2018-09-10T06:22:15.346Z,12.30
2018-09-10T06:24:43.085Z,11.57
2018-09-10T06:27:10.741Z,11.20
2018-09-10T06:29:38.695Z,11.07
2018-09-10T06:32:06.421Z,11.87
2018-09-10T06:34:34.251Z,12.63
2018-09-10T06:37:02.060Z,12.37
2018-09-10T06:39:29.681Z,13.20
2018-09-10T06:41:57.405Z,12.63
2018-09-10T06:44:25.156Z,12.77
2018-09-10T06:46:52.881Z,12.90
2018-09-10T06:49:20.497Z,13.17
2018-09-10T06:51:48.360Z,12.90
2018-09-10T06:54:16.353Z,13.23
2018-09-10T06:56:44.131Z,12.87
2018-09-10T06:59:12.099Z,12.43
2018-09-10T07:01:39.832Z,13.77
2018-09-10T07:04:07.568Z,13.93
2018-09-10T07:06:35.311Z,13.13
2018-09-10T07:09:03.928Z,13.23
2018-09-10T07:11:31.777Z,13.10
2018-09-10T07:13:59.540Z,13.43
2018-09-10T07:16:27.253Z,13.83
2018-09-10T07:18:54.886Z,13.83
2018-09-10T07:21:22.556Z,13.57
2018-09-10T07:23:50.071Z,13.60
2018-09-10T07:26:17.637Z,14.20
2018-09-10T07:28:45.353Z,13.87
2018-09-10T07:31:13.077Z,13.77
2018-09-10T07:33:40.937Z,13.47
2018-09-10T07:36:08.750Z,14.00
2018-09-10T07:38:36.368Z,12.87
2018-09-10T07:41:04.021Z,14.03
2018-09-10T07:43:31.760Z,13.60
2018-09-10T07:45:59.363Z,14.57
2018-09-10T07:48:27.022Z,13.27
2018-09-10T07:50:54.700Z,12.97
2018-09-10T07:53:22.366Z,13.20
2018-09-10T07:55:50.052Z,12.93
2018-09-10T07:58:17.625Z,13.73
2018-09-10T08:00:45.399Z,13.67
2018-09-10T08:03:13.077Z,13.20
2018-09-10T08:05:40.871Z,13.53
2018-09-10T08:08:08.582Z,14.70
2018-09-10T08:10:36.227Z,12.87
2018-09-10T08:13:03.784Z,14.60
2018-09-10T08:15:31.519Z,14.00
2018-09-10T08:17:59.186Z,12.70
2018-09-10T08:20:26.877Z,14.03
2018-09-10T08:22:54.542Z,12.93
2018-09-10T08:25:22.341Z,13.23
2018-09-10T08:27:50.004Z,12.63
2018-09-10T08:30:17.766Z,12.40
2018-09-10T08:32:45.427Z,12.50
2018-09-10T08:35:13.132Z,11.73
2018-09-10T08:37:40.870Z,11.40
2018-09-10T08:40:08.720Z,11.93
2018-09-10T08:42:36.315Z,11.80
2018-09-10T08:45:04.472Z,12.37
2018-09-10T08:47:32.154Z,11.63
2018-09-10T08:49:59.818Z,12.37
2018-09-10T08:52:27.454Z,11.40
2018-09-10T08:54:55.418Z,12.20
2018-09-10T08:57:22.969Z,12.43
2018-09-10T08:59:50.680Z,12.13
2018-09-10T09:02:18.445Z,10.43
2018-09-10T09:04:46.481Z,10.10
2018-09-10T09:07:14.604Z,11.23
2018-09-10T09:09:42.771Z,11.40
2018-09-10T09:12:10.860Z,11.12
2018-09-10T09:14:38.833Z,10.17
2018-09-10T09:17:06.907Z,10.87
2018-09-10T09:19:34.871Z,9.48
2018-09-10T09:22:02.867Z,10.28
2018-09-10T09:24:30.940Z,9.68
2018-09-10T09:26:58.927Z,10.70
2018-09-10T09:29:26.974Z,10.70
2018-09-10T09:31:54.961Z,9.75
2018-09-10T09:34:23.055Z,9.53
2018-09-10T09:36:56.476Z,7.17
2018-09-10T09:39:30.152Z,6.65
2018-09-10T09:42:03.964Z,8.15
2018-09-10T09:44:37.050Z,7.08
2018-09-10T09:47:04.794Z,7.50
2018-09-10T09:49:32.415Z,7.42
2018-09-10T09:52:00.139Z,6.17
2018-09-10T09:54:27.752Z,6.15
2018-09-10T09:56:55.388Z,6.17
2018-09-10T09:59:23.051Z,6.37
2018-09-10T10:01:52.079Z,6.33
2018-09-10T10:04:19.913Z,5.05
2018-09-10T10:06:47.922Z,5.28
2018-09-10T10:09:15.552Z,7.47
2018-09-10T10:11:43.232Z,5.28
2018-09-10T10:14:11.312Z,5.37
2018-09-10T10:16:39.300Z,6.10
2018-09-10T10:19:07.012Z,7.62
2018-09-10T10:21:34.845Z,6.72
2018-09-10T10:24:02.567Z,8.18
2018-09-10T10:26:32.097Z,5.10
2018-09-10T10:29:00.066Z,4.58
2018-09-10T10:31:27.707Z,4.40
2018-09-10T10:33:55.453Z,4.60
2018-09-10T10:36:23.103Z,3.90
2018-09-10T10:38:50.823Z,2.62
2018-09-10T10:41:18.711Z,2.70
2018-09-10T10:43:46.348Z,3.40
2018-09-10T10:46:14.084Z,3.08
2018-09-10T10:48:41.726Z,3.70
2018-09-10T10:51:09.425Z,3.65
2018-09-10T10:53:37.186Z,5.50
2018-09-10T10:56:05.019Z,4.62
2018-09-10T10:58:32.658Z,5.37
2018-09-10T11:01:00.389Z,3.72
2018-09-10T11:03:28.183Z,4.28
2018-09-10T11:05:55.829Z,3.95
2018-09-10T11:08:25.232Z,3.95
2018-09-10T11:10:53.171Z,3.35
2018-09-10T11:13:20.771Z,3.55
2018-09-10T11:15:48.425Z,3.00
2018-09-10T11:18:16.129Z,3.30
2018-09-10T11:20:43.745Z,4.00
2018-09-10T11:23:11.452Z,3.30
2018-09-10T11:25:39.058Z,3.52
2018-09-10T11:28:07.361Z,3.85
2018-09-10T11:30:35.064Z,3.12
2018-09-10T11:33:02.797Z,3.20
2018-09-10T11:35:30.680Z,3.17
2018-09-10T11:37:58.366Z,3.47
2018-09-10T11:40:25.985Z,2.95
2018-09-10T11:42:53.659Z,3.27
2018-09-10T11:45:21.372Z,2.90
2018-09-10T11:47:48.989Z,2.92
2018-09-10T11:50:16.688Z,2.67
2018-09-10T11:52:44.303Z,2.87
2018-09-10T11:55:11.963Z,3.05
2018-09-10T11:57:39.612Z,2.80
2018-09-10T12:00:07.509Z,2.85
2018-09-10T12:02:35.135Z,3.00
2018-09-10T12:05:02.773Z,3.15
2018-09-10T12:07:30.570Z,3.12
2018-09-10T12:09:58.217Z,3.02
2018-09-10T12:12:27.400Z,2.70
2018-09-10T12:14:55.224Z,3.60
2018-09-10T12:17:22.860Z,3.15
2018-09-10T12:19:50.594Z,3.42
2018-09-10T12:22:18.164Z,3.52
2018-09-10T12:24:45.812Z,3.12
2018-09-10T12:27:13.516Z,3.10
2018-09-10T12:29:41.131Z,3.22
2018-09-10T12:32:08.736Z,3.00
2018-09-10T12:34:36.374Z,3.27
2018-09-10T12:37:04.344Z,3.12
2018-09-10T12:39:32.020Z,3.05
2018-09-10T12:41:59.629Z,3.58
2018-09-10T12:44:27.189Z,2.98
2018-09-10T12:46:54.805Z,3.05
2018-09-10T12:49:22.569Z,3.20
2018-09-10T12:51:50.210Z,2.67
2018-09-10T12:54:17.862Z,3.70
2018-09-10T12:56:45.475Z,3.40
2018-09-10T12:59:13.129Z,3.50
2018-09-10T13:01:40.850Z,3.83
2018-09-10T13:04:08.568Z,3.65
2018-09-10T13:06:36.208Z,3.70
2018-09-10T13:09:05.073Z,3.92
2018-09-10T13:11:32.716Z,3.60
2018-09-10T13:14:00.334Z,3.92
2018-09-10T13:16:28.014Z,3.58
2018-09-10T13:18:55.712Z,3.25
2018-09-10T13:21:23.334Z,3.58
2018-09-10T13:23:50.992Z,3.60
2018-09-10T13:26:18.838Z,3.65
2018-09-10T13:28:46.504Z,4.05
2018-09-10T13:31:14.091Z,3.92
2018-09-10T13:33:42.205Z,3.30
2018-09-10T13:36:10.047Z,3.33
2018-09-10T13:38:39.655Z,3.40
2018-09-10T13:41:07.652Z,3.70
2018-09-10T13:43:35.608Z,3.22
2018-09-10T13:46:04.227Z,4.75
2018-09-10T13:48:31.909Z,3.80
2018-09-10T13:50:59.571Z,3.67
2018-09-10T13:53:27.188Z,3.33
2018-09-10T13:55:54.847Z,3.72
2018-09-10T13:58:22.496Z,3.90
2018-09-10T14:00:50.156Z,3.92
2018-09-10T14:03:17.793Z,3.42
2018-09-10T14:05:45.464Z,3.40
2018-09-10T14:08:13.114Z,3.92
2018-09-10T14:10:40.826Z,3.25
2018-09-10T14:13:08.655Z,3.10
2018-09-10T14:15:36.276Z,3.45
2018-09-10T14:18:03.858Z,3.45
2018-09-10T14:20:31.368Z,3.10
2018-09-10T14:22:58.885Z,3.20
2018-09-10T14:25:26.552Z,3.00
2018-09-10T14:27:54.188Z,3.35
2018-09-10T14:30:21.953Z,3.10
2018-09-10T14:32:49.593Z,3.00
2018-09-10T14:35:17.291Z,2.90
2018-09-10T14:37:44.905Z,3.00
2018-09-10T14:40:12.616Z,3.00
2018-09-10T14:42:40.173Z,2.85
2018-09-10T14:45:07.954Z,3.40
2018-09-10T14:47:35.616Z,2.75
2018-09-10T14:50:03.377Z,2.65
2018-09-10T14:52:30.980Z,3.05
2018-09-10T14:54:58.614Z,3.20
2018-09-10T14:57:26.274Z,2.87
2018-09-10T14:59:53.793Z,3.70
2018-09-10T15:02:21.476Z,2.98
2018-09-10T15:04:49.128Z,3.27
2018-09-10T15:07:16.798Z,3.40
2018-09-10T15:09:44.489Z,3.12
2018-09-10T15:12:12.132Z,3.45
2018-09-10T15:14:39.886Z,3.40
2018-09-10T15:17:07.462Z,3.50
2018-09-10T15:19:35.100Z,3.25
2018-09-10T15:22:02.717Z,3.30
2018-09-10T15:24:30.259Z,3.50
2018-09-10T15:26:57.835Z,3.30
2018-09-10T15:29:25.527Z,4.00
2018-09-10T15:31:53.241Z,3.85
2018-09-10T15:34:20.877Z,3.70
2018-09-10T15:36:48.537Z,3.65
2018-09-10T15:39:16.233Z,3.42
2018-09-10T15:41:43.845Z,3.77
2018-09-10T15:44:11.460Z,3.70
2018-09-10T15:46:39.068Z,3.77
2018-09-10T15:49:06.797Z,3.42
2018-09-10T15:51:34.444Z,3.70
2018-09-10T15:54:02.096Z,3.52
2018-09-10T15:56:29.717Z,3.83
2018-09-10T15:58:57.413Z,3.95
2018-09-10T16:01:25.097Z,3.40
2018-09-10T16:03:52.756Z,3.15
2018-09-10T16:06:20.401Z,3.00
2018-09-10T16:08:48.127Z,3.67
2018-09-10T16:11:15.848Z,3.67
2018-09-10T16:13:43.510Z,2.92
2018-09-10T16:16:11.192Z,3.17
2018-09-10T16:18:38.836Z,3.05
2018-09-10T16:21:06.551Z,3.70
2018-09-10T16:23:34.337Z,3.15
2018-09-10T16:26:02.004Z,3.80
2018-09-10T16:28:29.544Z,3.58
2018-09-10T16:30:58.900Z,3.08
2018-09-10T16:33:26.555Z,2.85
2018-09-10T16:35:54.229Z,3.60
2018-09-10T16:38:21.871Z,3.25
2018-09-10T16:40:49.502Z,2.85
2018-09-10T16:43:17.045Z,3.42
2018-09-10T16:45:44.605Z,3.55
2018-09-10T16:48:12.262Z,3.30
2018-09-10T16:50:39.976Z,3.20
2018-09-10T16:53:07.672Z,3.33
2018-09-10T16:55:35.320Z,3.30
2018-09-10T16:58:02.944Z,3.80
2018-09-10T17:00:30.604Z,3.65
2018-09-10T17:02:58.226Z,3.67
2018-09-10T17:05:25.838Z,3.40
2018-09-10T17:07:53.480Z,2.92
2018-09-10T17:10:21.150Z,3.47
2018-09-10T17:12:48.770Z,3.10
2018-09-10T17:15:16.409Z,3.37
2018-09-10T17:17:44.010Z,3.20
2018-09-10T17:20:11.667Z,3.35
2018-09-10T17:22:39.350Z,3.75
2018-09-10T17:25:07.056Z,3.70
2018-09-10T17:27:34.710Z,3.80
2018-09-10T17:30:02.364Z,3.92
2018-09-10T17:32:29.980Z,4.10
2018-09-10T17:34:57.644Z,3.95
2018-09-10T17:37:25.190Z,3.40
2018-09-10T17:39:52.801Z,3.02
2018-09-10T17:42:20.448Z,3.22
2018-09-10T17:44:48.056Z,3.17
2018-09-10T17:47:15.926Z,3.33
2018-09-10T17:49:43.455Z,3.37
2018-09-10T17:52:11.096Z,3.40
2018-09-10T17:54:38.837Z,3.17
2018-09-10T17:57:06.529Z,3.20
2018-09-10T17:59:34.165Z,3.10
2018-09-10T18:02:01.876Z,2.85
2018-09-10T18:04:29.479Z,3.42
2018-09-10T18:06:57.922Z,2.83
2018-09-10T18:09:25.569Z,2.80
2018-09-10T18:11:53.393Z,3.00
2018-09-10T18:14:21.744Z,2.80
2018-09-10T18:16:50.017Z,3.62
2018-09-10T18:19:18.444Z,3.92
2018-09-10T18:21:46.144Z,2.92
2018-09-10T18:24:13.734Z,3.37
2018-09-10T18:26:41.387Z,3.33
2018-09-10T18:29:09.023Z,3.10
2018-09-10T18:31:36.764Z,4.55
2018-09-10T18:34:04.515Z,4.05
2018-09-10T18:36:32.134Z,4.28
2018-09-10T18:38:59.666Z,3.92
2018-09-10T18:41:27.320Z,3.75
2018-09-10T18:43:54.976Z,3.50
2018-09-10T18:46:22.619Z,3.12
2018-09-10T18:48:50.194Z,3.72
2018-09-10T18:51:17.871Z,3.87
2018-09-10T18:53:45.522Z,3.77
2018-09-10T18:56:13.224Z,3.75
2018-09-10T18:58:40.904Z,3.67
2018-09-10T19:01:08.692Z,4.10
2018-09-10T19:03:36.108Z,3.60
2018-09-10T19:06:03.740Z,4.17
2018-09-10T19:08:31.323Z,3.75
2018-09-10T19:10:58.986Z,3.65
2018-09-10T19:13:26.632Z,3.80
2018-09-10T19:15:54.306Z,4.00
2018-09-10T19:18:26.490Z,4.87
2018-09-10T19:20:54.160Z,4.55
2018-09-10T19:23:21.843Z,4.83
2018-09-10T19:25:49.537Z,4.30
2018-09-10T19:28:17.220Z,4.03
2018-09-10T19:30:44.933Z,3.98
2018-09-10T19:33:12.569Z,3.50
2018-09-10T19:35:40.364Z,4.17
2018-09-10T19:38:07.988Z,4.22
2018-09-10T19:40:35.605Z,3.90
2018-09-10T19:43:03.370Z,4.70
2018-09-10T19:45:31.034Z,4.10
2018-09-10T19:47:58.699Z,3.63
2018-09-10T19:50:26.363Z,4.20
2018-09-10T19:52:53.988Z,4.90
2018-09-10T19:55:21.581Z,4.70
2018-09-10T19:57:49.146Z,4.53
2018-09-10T20:00:16.785Z,4.30
2018-09-10T20:02:44.564Z,4.97
2018-09-10T20:05:12.219Z,4.17
2018-09-10T20:07:39.891Z,3.93
2018-09-10T20:10:07.747Z,4.50
2018-09-10T20:12:35.810Z,4.07
2018-09-10T20:15:03.679Z,4.27
2018-09-10T20:17:31.308Z,4.43
2018-09-10T20:19:58.960Z,4.07
2018-09-10T20:22:26.628Z,5.17
2018-09-10T20:24:54.245Z,5.30
2018-09-10T20:27:21.799Z,5.87
2018-09-10T20:29:49.574Z,5.20
2018-09-10T20:32:17.237Z,4.83
2018-09-10T20:34:45.796Z,4.63
2018-09-10T20:37:13.917Z,4.87
2018-09-10T20:39:41.730Z,5.20
2018-09-10T20:42:09.400Z,5.07
2018-09-10T20:44:37.040Z,5.70
2018-09-10T20:47:05.318Z,5.40
2018-09-10T20:49:33.005Z,4.30
2018-09-10T20:52:00.721Z,5.20
2018-09-10T20:54:28.452Z,4.90
2018-09-10T20:56:56.134Z,5.03
2018-09-10T20:59:23.794Z,4.67
2018-09-10T21:01:51.555Z,4.73
2018-09-10T21:04:19.291Z,5.20
2018-09-10T21:06:46.944Z,5.43
2018-09-10T21:09:14.718Z,6.40
2018-09-10T21:11:42.330Z,5.80
2018-09-10T21:14:10.081Z,6.90
2018-09-10T21:16:37.656Z,7.83
2018-09-10T21:19:05.406Z,7.97
2018-09-10T21:21:33.070Z,8.37
2018-09-10T21:24:00.792Z,7.63
2018-09-10T21:26:28.483Z,8.13
2018-09-10T21:28:56.119Z,6.90
2018-09-10T21:31:25.512Z,6.97
2018-09-10T21:33:53.132Z,6.70
2018-09-10T21:36:20.789Z,6.23
2018-09-10T21:38:48.428Z,6.60
2018-09-10T21:41:16.120Z,6.60
2018-09-10T21:43:43.777Z,6.50
2018-09-10T21:46:11.481Z,5.43
2018-09-10T21:48:39.195Z,6.87
2018-09-10T21:51:07.464Z,6.43
2018-09-10T21:53:35.201Z,5.67
2018-09-10T21:56:02.888Z,7.33
2018-09-10T21:58:30.558Z,6.00
2018-09-10T22:00:58.462Z,7.00
2018-09-10T22:03:26.623Z,6.50
2018-09-10T22:05:54.725Z,8.63
2018-09-10T22:08:22.810Z,8.80
2018-09-10T22:10:50.588Z,9.53
2018-09-10T22:13:18.314Z,7.97
2018-09-10T22:15:45.989Z,8.07
2018-09-10T22:18:14.003Z,7.40
2018-09-10T22:20:42.012Z,6.80
2018-09-10T22:23:09.834Z,7.10
2018-09-10T22:25:37.646Z,7.37
2018-09-10T22:28:05.511Z,6.43
2018-09-10T22:30:33.921Z,7.00
2018-09-10T22:33:01.548Z,6.97
2018-09-10T22:35:29.155Z,6.83
2018-09-10T22:37:56.788Z,6.60
2018-09-10T22:40:24.508Z,7.33
2018-09-10T22:42:52.119Z,6.67
2018-09-10T22:45:20.109Z,6.73
2018-09-10T22:47:48.012Z,7.00
2018-09-10T22:50:15.818Z,7.17
2018-09-10T22:52:43.437Z,6.57
2018-09-10T22:55:11.140Z,7.20
2018-09-10T22:57:38.866Z,7.00
2018-09-10T23:00:07.152Z,7.80
2018-09-10T23:02:34.828Z,7.07
2018-09-10T23:05:02.617Z,7.03
2018-09-10T23:07:30.340Z,8.27
2018-09-10T23:09:58.009Z,6.97
2018-09-10T23:12:25.686Z,7.97
2018-09-10T23:14:53.304Z,7.27
2018-09-10T23:17:20.937Z,7.27
2018-09-10T23:19:48.844Z,5.80
2018-09-10T23:22:16.492Z,6.80
2018-09-10T23:24:44.188Z,6.57
2018-09-10T23:27:11.760Z,5.77
2018-09-10T23:29:39.335Z,7.17
2018-09-10T23:32:07.008Z,6.83
2018-09-10T23:34:34.884Z,6.50
2018-09-10T23:37:02.957Z,7.30
2018-09-10T23:39:30.627Z,7.20
2018-09-10T23:41:58.346Z,6.20
2018-09-10T23:44:25.989Z,6.60
2018-09-10T23:46:53.992Z,7.10
2018-09-10T23:49:21.714Z,6.77
2018-09-10T23:51:49.599Z,6.83
2018-09-10T23:54:17.301Z,6.80
2018-09-10T23:56:45.133Z,7.60
2018-09-10T23:59:12.953Z,7.47
